sensor_id;sensor_type;location;lat;lon;timestamp;P1;durP1;ratioP1;P2;durP2;ratioP2
9384;SDS011;4732;49.340;10.886;2023-04-10T09:46:06;6.97;;;5.82;;
9384;SDS011;4732;49.340;10.886;2023-04-10T09:48:32;7.00;;;6.13;;
9384;SDS011;4732;49.340;10.886;2023-04-10T09:50:57;6.50;;;5.72;;
9384;SDS011;4732;49.340;10.886;2023-04-10T09:53:32;6.90;;;5.50;;
9384;SDS011;4732;49.340;10.886;2023-04-10T09:56:18;6.40;;;5.53;;
9384;SDS011;4732;49.340;10.886;2023-04-10T10:01:32;7.03;;;5.80;;
9384;SDS011;4732;49.340;10.886;2023-04-10T10:04:02;7.03;;;6.28;;
9384;SDS011;4732;49.340;10.886;2023-04-10T10:06:29;5.78;;;5.22;;
9384;SDS011;4732;49.340;10.886;2023-04-10T11:15:08;4.57;;;4.18;;
9384;SDS011;4732;49.340;10.886;2023-04-10T11:20:16;4.20;;;3.80;;
9384;SDS011;4732;49.340;10.886;2023-04-10T11:25:47;3.60;;;3.30;;
9384;SDS011;4732;49.340;10.886;2023-04-10T11:28:36;4.00;;;3.60;;
9384;SDS011;4732;49.340;10.886;2023-04-10T11:33:40;4.00;;;3.60;;
9384;SDS011;4732;49.340;10.886;2023-04-10T11:36:06;4.82;;;3.53;;
9384;SDS011;4732;49.340;10.886;2023-04-10T11:38:32;3.75;;;3.45;;
9384;SDS011;4732;49.340;10.886;2023-04-10T11:41:00;4.15;;;3.75;;
9384;SDS011;4732;49.340;10.886;2023-04-10T11:43:26;3.70;;;3.40;;
9384;SDS011;4732;49.340;10.886;2023-04-10T11:45:59;4.68;;;3.25;;
9384;SDS011;4732;49.340;10.886;2023-04-10T11:48:26;4.50;;;2.97;;
9384;SDS011;4732;49.340;10.886;2023-04-10T11:50:52;3.78;;;3.22;;
9384;SDS011;4732;49.340;10.886;2023-04-10T11:53:19;2.90;;;2.70;;
9384;SDS011;4732;49.340;10.886;2023-04-10T11:55:45;3.58;;;3.15;;
9384;SDS011;4732;49.340;10.886;2023-04-10T11:58:22;3.85;;;3.03;;
9384;SDS011;4732;49.340;10.886;2023-04-10T12:00:54;2.92;;;2.72;;
9384;SDS011;4732;49.340;10.886;2023-04-10T12:03:39;3.10;;;2.80;;
9384;SDS011;4732;49.340;10.886;2023-04-10T12:06:09;3.30;;;3.00;;
9384;SDS011;4732;49.340;10.886;2023-04-10T12:08:36;2.70;;;2.50;;
9384;SDS011;4732;49.340;10.886;2023-04-10T12:11:02;3.08;;;2.88;;
9384;SDS011;4732;49.340;10.886;2023-04-10T12:13:28;3.25;;;2.95;;
9384;SDS011;4732;49.340;10.886;2023-04-10T12:15:56;4.22;;;3.65;;
9384;SDS011;4732;49.340;10.886;2023-04-10T12:18:24;3.55;;;3.25;;
9384;SDS011;4732;49.340;10.886;2023-04-10T12:20:50;3.20;;;2.90;;
9384;SDS011;4732;49.340;10.886;2023-04-10T12:23:20;3.28;;;2.97;;
9384;SDS011;4732;49.340;10.886;2023-04-10T12:25:46;3.65;;;3.35;;
9384;SDS011;4732;49.340;10.886;2023-04-10T12:28:18;3.67;;;3.38;;
9384;SDS011;4732;49.340;10.886;2023-04-10T12:30:48;3.95;;;3.55;;
9384;SDS011;4732;49.340;10.886;2023-04-10T12:33:23;3.60;;;3.30;;
9384;SDS011;4732;49.340;10.886;2023-04-10T12:35:49;4.05;;;3.67;;
9384;SDS011;4732;49.340;10.886;2023-04-10T12:38:33;3.60;;;3.30;;
9384;SDS011;4732;49.340;10.886;2023-04-10T12:41:03;4.38;;;3.95;;
9384;SDS011;4732;49.340;10.886;2023-04-10T12:43:29;6.25;;;4.05;;
9384;SDS011;4732;49.340;10.886;2023-04-10T12:46:00;4.38;;;3.97;;
9384;SDS011;4732;49.340;10.886;2023-04-10T12:48:26;3.85;;;3.53;;
9384;SDS011;4732;49.340;10.886;2023-04-10T12:50:52;4.40;;;4.00;;
9384;SDS011;4732;49.340;10.886;2023-04-10T12:53:17;4.13;;;3.83;;
9384;SDS011;4732;49.340;10.886;2023-04-10T12:58:28;5.32;;;4.32;;
9384;SDS011;4732;49.340;10.886;2023-04-10T13:00:58;4.40;;;4.00;;
9384;SDS011;4732;49.340;10.886;2023-04-10T13:03:28;4.03;;;3.63;;
9384;SDS011;4732;49.340;10.886;2023-04-10T13:05:54;4.18;;;3.78;;
9384;SDS011;4732;49.340;10.886;2023-04-10T13:08:21;3.92;;;3.60;;
9384;SDS011;4732;49.340;10.886;2023-04-10T13:10:47;4.07;;;3.58;;
9384;SDS011;4732;49.340;10.886;2023-04-10T13:13:13;4.18;;;3.83;;
9384;SDS011;4732;49.340;10.886;2023-04-10T13:15:39;4.35;;;3.92;;
9384;SDS011;4732;49.340;10.886;2023-04-10T13:18:05;4.03;;;3.60;;
9384;SDS011;4732;49.340;10.886;2023-04-10T13:20:31;3.92;;;3.63;;
9384;SDS011;4732;49.340;10.886;2023-04-10T13:22:59;6.03;;;3.50;;
9384;SDS011;4732;49.340;10.886;2023-04-10T13:25:26;4.40;;;3.88;;
9384;SDS011;4732;49.340;10.886;2023-04-10T13:27:51;3.92;;;3.63;;
9384;SDS011;4732;49.340;10.886;2023-04-10T13:30:17;3.88;;;3.50;;
9384;SDS011;4732;49.340;10.886;2023-04-10T13:32:42;4.25;;;3.85;;
9384;SDS011;4732;49.340;10.886;2023-04-10T13:35:08;4.32;;;3.92;;
9384;SDS011;4732;49.340;10.886;2023-04-10T13:37:33;8.48;;;7.68;;
9384;SDS011;4732;49.340;10.886;2023-04-10T13:39:59;5.20;;;4.70;;
9384;SDS011;4732;49.340;10.886;2023-04-10T13:42:24;4.00;;;3.60;;
9384;SDS011;4732;49.340;10.886;2023-04-10T13:44:50;4.00;;;3.60;;
9384;SDS011;4732;49.340;10.886;2023-04-10T13:47:15;3.72;;;3.42;;
9384;SDS011;4732;49.340;10.886;2023-04-10T13:49:41;3.53;;;3.22;;
9384;SDS011;4732;49.340;10.886;2023-04-10T13:52:07;3.70;;;3.40;;
9384;SDS011;4732;49.340;10.886;2023-04-10T13:54:32;3.42;;;3.13;;
9384;SDS011;4732;49.340;10.886;2023-04-10T13:56:58;3.80;;;3.40;;
9384;SDS011;4732;49.340;10.886;2023-04-10T13:59:23;3.55;;;3.25;;
9384;SDS011;4732;49.340;10.886;2023-04-10T14:01:49;3.47;;;3.17;;
9384;SDS011;4732;49.340;10.886;2023-04-10T14:04:16;5.18;;;3.50;;
9384;SDS011;4732;49.340;10.886;2023-04-10T14:06:42;3.20;;;2.90;;
9384;SDS011;4732;49.340;10.886;2023-04-10T14:09:07;3.70;;;3.40;;
9384;SDS011;4732;49.340;10.886;2023-04-10T14:11:33;3.78;;;3.30;;
9384;SDS011;4732;49.340;10.886;2023-04-10T14:13:59;3.00;;;2.80;;
9384;SDS011;4732;49.340;10.886;2023-04-10T14:16:24;3.22;;;2.92;;
9384;SDS011;4732;49.340;10.886;2023-04-10T14:18:50;2.67;;;2.47;;
9384;SDS011;4732;49.340;10.886;2023-04-10T14:21:15;3.17;;;2.50;;
9384;SDS011;4732;49.340;10.886;2023-04-10T14:23:41;3.20;;;2.90;;
9384;SDS011;4732;49.340;10.886;2023-04-10T14:26:06;3.33;;;3.03;;
9384;SDS011;4732;49.340;10.886;2023-04-10T14:28:32;3.30;;;3.00;;
9384;SDS011;4732;49.340;10.886;2023-04-10T14:30:58;3.17;;;2.92;;
9384;SDS011;4732;49.340;10.886;2023-04-10T14:33:24;3.58;;;3.28;;
9384;SDS011;4732;49.340;10.886;2023-04-10T14:35:49;4.93;;;3.30;;
9384;SDS011;4732;49.340;10.886;2023-04-10T14:38:15;3.90;;;3.30;;
9384;SDS011;4732;49.340;10.886;2023-04-10T14:40:40;3.20;;;2.90;;
9384;SDS011;4732;49.340;10.886;2023-04-10T14:43:06;6.95;;;3.22;;
9384;SDS011;4732;49.340;10.886;2023-04-10T14:45:32;3.50;;;3.20;;
9384;SDS011;4732;49.340;10.886;2023-04-10T14:47:57;3.55;;;3.22;;
9384;SDS011;4732;49.340;10.886;2023-04-10T14:50:23;3.10;;;2.80;;
9384;SDS011;4732;49.340;10.886;2023-04-10T14:52:49;3.20;;;2.92;;
9384;SDS011;4732;49.340;10.886;2023-04-10T14:55:16;7.50;;;3.28;;
9384;SDS011;4732;49.340;10.886;2023-04-10T14:57:41;3.70;;;3.05;;
9384;SDS011;4732;49.340;10.886;2023-04-10T15:00:07;3.80;;;3.40;;
9384;SDS011;4732;49.340;10.886;2023-04-10T15:02:33;3.40;;;3.10;;
9384;SDS011;4732;49.340;10.886;2023-04-10T15:04:58;3.67;;;3.30;;
9384;SDS011;4732;49.340;10.886;2023-04-10T15:07:24;3.40;;;3.10;;
9384;SDS011;4732;49.340;10.886;2023-04-10T15:09:54;3.47;;;3.17;;
9384;SDS011;4732;49.340;10.886;2023-04-10T15:12:21;3.22;;;2.92;;
9384;SDS011;4732;49.340;10.886;2023-04-10T15:14:47;3.35;;;3.05;;
9384;SDS011;4732;49.340;10.886;2023-04-10T15:17:13;3.42;;;3.13;;
9384;SDS011;4732;49.340;10.886;2023-04-10T15:19:38;3.20;;;2.85;;
9384;SDS011;4732;49.340;10.886;2023-04-10T15:22:04;3.38;;;3.08;;
9384;SDS011;4732;49.340;10.886;2023-04-10T15:24:29;5.22;;;3.50;;
9384;SDS011;4732;49.340;10.886;2023-04-10T15:26:55;3.33;;;3.03;;
9384;SDS011;4732;49.340;10.886;2023-04-10T15:29:21;3.95;;;3.10;;
9384;SDS011;4732;49.340;10.886;2023-04-10T15:31:47;3.50;;;3.20;;
9384;SDS011;4732;49.340;10.886;2023-04-10T15:34:14;3.35;;;3.05;;
9384;SDS011;4732;49.340;10.886;2023-04-10T15:36:40;3.65;;;3.35;;
9384;SDS011;4732;49.340;10.886;2023-04-10T15:39:06;4.10;;;3.53;;
9384;SDS011;4732;49.340;10.886;2023-04-10T15:41:32;3.75;;;3.45;;
9384;SDS011;4732;49.340;10.886;2023-04-10T15:43:58;4.15;;;3.75;;
9384;SDS011;4732;49.340;10.886;2023-04-10T15:46:24;4.32;;;3.92;;
9384;SDS011;4732;49.340;10.886;2023-04-10T15:48:50;4.43;;;4.03;;
9384;SDS011;4732;49.340;10.886;2023-04-10T15:51:16;4.85;;;3.42;;
9384;SDS011;4732;49.340;10.886;2023-04-10T15:53:41;3.35;;;3.05;;
9384;SDS011;4732;49.340;10.886;2023-04-10T15:56:07;3.72;;;3.35;;
9384;SDS011;4732;49.340;10.886;2023-04-10T15:58:33;3.80;;;3.40;;
9384;SDS011;4732;49.340;10.886;2023-04-10T16:00:59;3.78;;;3.45;;
9384;SDS011;4732;49.340;10.886;2023-04-10T16:03:25;3.65;;;3.35;;
9384;SDS011;4732;49.340;10.886;2023-04-10T16:05:50;3.60;;;3.30;;
9384;SDS011;4732;49.340;10.886;2023-04-10T16:08:16;3.45;;;3.15;;
9384;SDS011;4732;49.340;10.886;2023-04-10T16:10:42;3.45;;;3.15;;
9384;SDS011;4732;49.340;10.886;2023-04-10T16:13:08;4.32;;;3.88;;
9384;SDS011;4732;49.340;10.886;2023-04-10T16:15:34;3.95;;;3.40;;
9384;SDS011;4732;49.340;10.886;2023-04-10T16:18:04;3.38;;;3.08;;
9384;SDS011;4732;49.340;10.886;2023-04-10T16:20:31;3.80;;;3.45;;
9384;SDS011;4732;49.340;10.886;2023-04-10T16:22:57;3.53;;;3.22;;
9384;SDS011;4732;49.340;10.886;2023-04-10T16:25:23;2.95;;;2.75;;
9384;SDS011;4732;49.340;10.886;2023-04-10T16:27:51;3.42;;;3.13;;
9384;SDS011;4732;49.340;10.886;2023-04-10T16:30:17;3.95;;;3.55;;
9384;SDS011;4732;49.340;10.886;2023-04-10T16:32:42;3.53;;;3.22;;
9384;SDS011;4732;49.340;10.886;2023-04-10T16:35:08;3.25;;;2.95;;
9384;SDS011;4732;49.340;10.886;2023-04-10T16:37:34;3.50;;;3.20;;
9384;SDS011;4732;49.340;10.886;2023-04-10T16:40:00;3.70;;;3.40;;
9384;SDS011;4732;49.340;10.886;2023-04-10T16:42:26;3.45;;;3.15;;
9384;SDS011;4732;49.340;10.886;2023-04-10T16:44:51;3.97;;;3.58;;
9384;SDS011;4732;49.340;10.886;2023-04-10T16:47:17;3.95;;;3.63;;
9384;SDS011;4732;49.340;10.886;2023-04-10T16:49:42;3.88;;;3.47;;
9384;SDS011;4732;49.340;10.886;2023-04-10T16:52:10;3.50;;;3.20;;
9384;SDS011;4732;49.340;10.886;2023-04-10T16:54:36;3.78;;;2.95;;
9384;SDS011;4732;49.340;10.886;2023-04-10T16:57:02;3.80;;;3.40;;
9384;SDS011;4732;49.340;10.886;2023-04-10T16:59:28;4.65;;;3.05;;
9384;SDS011;4732;49.340;10.886;2023-04-10T17:01:53;3.40;;;3.10;;
9384;SDS011;4732;49.340;10.886;2023-04-10T17:04:19;4.07;;;3.63;;
9384;SDS011;4732;49.340;10.886;2023-04-10T17:06:45;3.70;;;3.20;;
9384;SDS011;4732;49.340;10.886;2023-04-10T17:09:10;3.50;;;3.20;;
9384;SDS011;4732;49.340;10.886;2023-04-10T17:11:36;3.85;;;3.47;;
9384;SDS011;4732;49.340;10.886;2023-04-10T17:14:01;4.18;;;3.78;;
9384;SDS011;4732;49.340;10.886;2023-04-10T17:16:27;3.65;;;3.35;;
9384;SDS011;4732;49.340;10.886;2023-04-10T17:18:53;3.60;;;3.20;;
9384;SDS011;4732;49.340;10.886;2023-04-10T17:21:19;3.63;;;3.33;;
9384;SDS011;4732;49.340;10.886;2023-04-10T17:23:45;4.00;;;3.60;;
9384;SDS011;4732;49.340;10.886;2023-04-10T17:26:11;3.25;;;2.95;;
9384;SDS011;4732;49.340;10.886;2023-04-10T17:28:38;4.70;;;3.30;;
9384;SDS011;4732;49.340;10.886;2023-04-10T17:31:04;4.35;;;3.33;;
9384;SDS011;4732;49.340;10.886;2023-04-10T17:33:30;4.22;;;3.83;;
9384;SDS011;4732;49.340;10.886;2023-04-10T17:35:56;4.43;;;3.67;;
9384;SDS011;4732;49.340;10.886;2023-04-10T17:38:21;4.30;;;3.90;;
9384;SDS011;4732;49.340;10.886;2023-04-10T17:40:47;4.55;;;3.67;;
9384;SDS011;4732;49.340;10.886;2023-04-10T17:43:12;3.90;;;3.47;;
9384;SDS011;4732;49.340;10.886;2023-04-10T17:45:38;4.20;;;3.80;;
9384;SDS011;4732;49.340;10.886;2023-04-10T17:48:04;4.00;;;3.60;;
9384;SDS011;4732;49.340;10.886;2023-04-10T17:50:31;4.90;;;3.80;;
9384;SDS011;4732;49.340;10.886;2023-04-10T17:52:57;3.50;;;3.20;;
9384;SDS011;4732;49.340;10.886;2023-04-10T17:55:23;3.92;;;3.35;;
9384;SDS011;4732;49.340;10.886;2023-04-10T17:57:49;3.60;;;3.05;;
9384;SDS011;4732;49.340;10.886;2023-04-10T18:00:15;4.00;;;3.28;;
9384;SDS011;4732;49.340;10.886;2023-04-10T18:02:42;3.25;;;2.95;;
9384;SDS011;4732;49.340;10.886;2023-04-10T18:05:12;3.47;;;3.13;;
9384;SDS011;4732;49.340;10.886;2023-04-10T18:07:37;3.58;;;3.22;;
9384;SDS011;4732;49.340;10.886;2023-04-10T18:10:03;5.07;;;3.13;;
9384;SDS011;4732;49.340;10.886;2023-04-10T18:12:30;3.83;;;3.25;;
9384;SDS011;4732;49.340;10.886;2023-04-10T18:14:56;3.70;;;3.40;;
9384;SDS011;4732;49.340;10.886;2023-04-10T18:17:21;5.13;;;4.63;;
9384;SDS011;4732;49.340;10.886;2023-04-10T18:19:48;6.50;;;4.95;;
9384;SDS011;4732;49.340;10.886;2023-04-10T18:22:15;5.65;;;4.63;;
9384;SDS011;4732;49.340;10.886;2023-04-10T18:24:44;4.70;;;4.30;;
9384;SDS011;4732;49.340;10.886;2023-04-10T18:27:11;5.05;;;4.10;;
9384;SDS011;4732;49.340;10.886;2023-04-10T18:29:36;5.43;;;4.57;;
9384;SDS011;4732;49.340;10.886;2023-04-10T18:32:02;6.35;;;4.68;;
9384;SDS011;4732;49.340;10.886;2023-04-10T18:34:28;5.97;;;4.82;;
9384;SDS011;4732;49.340;10.886;2023-04-10T18:36:53;4.57;;;3.85;;
9384;SDS011;4732;49.340;10.886;2023-04-10T18:39:19;4.70;;;4.22;;
9384;SDS011;4732;49.340;10.886;2023-04-10T18:41:45;5.90;;;3.80;;
9384;SDS011;4732;49.340;10.886;2023-04-10T18:44:11;4.93;;;3.60;;
9384;SDS011;4732;49.340;10.886;2023-04-10T18:46:37;3.97;;;3.58;;
9384;SDS011;4732;49.340;10.886;2023-04-10T18:49:02;4.78;;;3.55;;
9384;SDS011;4732;49.340;10.886;2023-04-10T18:51:28;3.28;;;2.97;;
9384;SDS011;4732;49.340;10.886;2023-04-10T18:53:53;3.63;;;3.33;;
9384;SDS011;4732;49.340;10.886;2023-04-10T18:56:19;4.63;;;3.53;;
9384;SDS011;4732;49.340;10.886;2023-04-10T18:58:45;3.20;;;2.90;;
9384;SDS011;4732;49.340;10.886;2023-04-10T19:01:10;7.22;;;3.88;;
9384;SDS011;4732;49.340;10.886;2023-04-10T19:03:36;3.25;;;2.95;;
9384;SDS011;4732;49.340;10.886;2023-04-10T19:06:02;3.50;;;2.83;;
9384;SDS011;4732;49.340;10.886;2023-04-10T19:08:27;4.22;;;3.83;;
9384;SDS011;4732;49.340;10.886;2023-04-10T19:10:53;4.10;;;3.70;;
9384;SDS011;4732;49.340;10.886;2023-04-10T19:13:19;4.20;;;3.47;;
9384;SDS011;4732;49.340;10.886;2023-04-10T19:15:45;3.38;;;3.08;;
9384;SDS011;4732;49.340;10.886;2023-04-10T19:18:14;4.57;;;3.75;;
9384;SDS011;4732;49.340;10.886;2023-04-10T19:20:42;4.97;;;3.90;;
9384;SDS011;4732;49.340;10.886;2023-04-10T19:23:07;4.28;;;3.28;;
9384;SDS011;4732;49.340;10.886;2023-04-10T19:25:33;3.50;;;3.15;;
9384;SDS011;4732;49.340;10.886;2023-04-10T19:27:59;4.03;;;3.63;;
9384;SDS011;4732;49.340;10.886;2023-04-10T19:30:29;3.95;;;3.50;;
9384;SDS011;4732;49.340;10.886;2023-04-10T19:32:55;4.25;;;3.30;;
9384;SDS011;4732;49.340;10.886;2023-04-10T19:35:20;3.65;;;3.30;;
9384;SDS011;4732;49.340;10.886;2023-04-10T19:37:46;4.35;;;3.38;;
9384;SDS011;4732;49.340;10.886;2023-04-10T19:40:14;4.55;;;2.90;;
9384;SDS011;4732;49.340;10.886;2023-04-10T19:42:41;3.42;;;3.03;;
9384;SDS011;4732;49.340;10.886;2023-04-10T19:45:09;3.72;;;3.33;;
9384;SDS011;4732;49.340;10.886;2023-04-10T19:47:35;5.72;;;3.53;;
9384;SDS011;4732;49.340;10.886;2023-04-10T19:50:01;3.75;;;3.20;;
9384;SDS011;4732;49.340;10.886;2023-04-10T19:52:27;4.47;;;3.70;;
9384;SDS011;4732;49.340;10.886;2023-04-10T19:54:52;4.03;;;3.63;;
9384;SDS011;4732;49.340;10.886;2023-04-10T19:57:18;4.45;;;3.78;;
9384;SDS011;4732;49.340;10.886;2023-04-10T19:59:43;5.07;;;3.63;;
9384;SDS011;4732;49.340;10.886;2023-04-10T20:02:09;4.35;;;3.85;;
9384;SDS011;4732;49.340;10.886;2023-04-10T20:04:36;3.88;;;3.45;;
9384;SDS011;4732;49.340;10.886;2023-04-10T20:07:01;3.80;;;3.42;;
9384;SDS011;4732;49.340;10.886;2023-04-10T20:09:27;3.65;;;3.28;;
9384;SDS011;4732;49.340;10.886;2023-04-10T20:11:53;4.05;;;3.50;;
9384;SDS011;4732;49.340;10.886;2023-04-10T20:14:18;4.10;;;3.70;;
9384;SDS011;4732;49.340;10.886;2023-04-10T20:16:44;4.20;;;3.65;;
9384;SDS011;4732;49.340;10.886;2023-04-10T20:19:10;4.20;;;3.80;;
9384;SDS011;4732;49.340;10.886;2023-04-10T20:21:36;4.03;;;3.63;;
9384;SDS011;4732;49.340;10.886;2023-04-10T20:24:02;5.60;;;3.78;;
9384;SDS011;4732;49.340;10.886;2023-04-10T20:26:32;4.53;;;4.00;;
9384;SDS011;4732;49.340;10.886;2023-04-10T20:28:59;4.53;;;4.03;;
9384;SDS011;4732;49.340;10.886;2023-04-10T20:31:25;4.03;;;3.55;;
9384;SDS011;4732;49.340;10.886;2023-04-10T20:33:50;4.90;;;3.85;;
9384;SDS011;4732;49.340;10.886;2023-04-10T20:36:18;4.65;;;4.10;;
9384;SDS011;4732;49.340;10.886;2023-04-10T20:38:43;6.68;;;3.85;;
9384;SDS011;4732;49.340;10.886;2023-04-10T20:41:09;4.30;;;3.90;;
9384;SDS011;4732;49.340;10.886;2023-04-10T20:46:19;4.90;;;4.20;;
9384;SDS011;4732;49.340;10.886;2023-04-10T20:48:57;4.88;;;4.35;;
9384;SDS011;4732;49.340;10.886;2023-04-10T20:54:44;5.47;;;4.25;;
9384;SDS011;4732;49.340;10.886;2023-04-10T20:57:52;4.78;;;4.28;;
9384;SDS011;4732;49.340;10.886;2023-04-10T21:08:47;4.75;;;4.18;;
9384;SDS011;4732;49.340;10.886;2023-04-10T21:27:45;5.60;;;4.22;;
9384;SDS011;4732;49.340;10.886;2023-04-10T21:36:20;4.65;;;3.97;;
9384;SDS011;4732;49.340;10.886;2023-04-10T21:49:59;4.60;;;3.88;;
9384;SDS011;4732;49.340;10.886;2023-04-10T21:52:25;5.03;;;4.05;;
9384;SDS011;4732;49.340;10.886;2023-04-10T21:55:15;4.63;;;3.92;;
9384;SDS011;4732;49.340;10.886;2023-04-10T22:00:16;4.90;;;4.38;;
